LTAC/ESB METAR and TAF weather

Enter ICAO airport designator
Station Type Date Time Source
LTAC METAR 2019/10/23 13:20 UTC NOAA

LTAC 231320Z 03010KT CAVOK 21/02 Q1019 NOSIG


Station Type Date Time Source
LTAC Decoded METAR 2019/10/23 13:20 UTC NOAA

Ankara / Esenboga, Turkey (LTAC) 40-07N 032-59E 949M
Oct 23, 2019 - 09:20 AM EDT / 2019.10.23 1320 UTC
Wind: from the NNE (030 degrees) at 12 MPH (10 KT):0
Visibility: greater than 7 mile(s):0
Temperature: 69 F (21 C)
Dew Point: 35 F (2 C)
Relative Humidity: 28%
Pressure (altimeter): 30.09 in. Hg (1019 hPa)
ob: LTAC 231320Z 03010KT CAVOK 21/02 Q1019 NOSIG
cycle: 13

Station Type Date Time Source
LTAC TAF 2019/10/23 12:03 UTC NOAA

TAF LTAC 231040Z 2312/2412 VRB02KT CAVOK

Example: see airport list